FIN85P EFHK-GCLP
Flight info
| Callsign | FIN85P |
|---|---|
| Flight time | N/A |
| Altitude | 40000 |
| Route | NUNTO4N/22R NUNTO Y369 REKDO DCT KOSKA DCT GITER DCT EMMUN DCT BATAK DCT NIK DCT CIV DCT MEDIL/N0488F410 DCT KOVIN DCT NIDUV DCT KIHVI UN872 ERIGA DCT FUJTI DCT BAKUP DCT BATAX DCT GANSU DCT BEXAL DCT SAMAR |
| Aircraft | A359/H-SDE2E3GHIJ3J4J5LM1ORWXY/LB1D1 |
Departure
| Time | N/A |
|---|---|
| Airport | Helsinki Vantaa Airport (EFHK) |
Arrival
| Time | 2026-05-04 01:04 |
|---|---|
| Airport | Gran Canaria Airport (GCLP) |
| Time | Latitude | Longitude | Altitude | Speed | Heading |
|---|---|---|---|---|---|
| 2026-05-03 21:11 | 52.36855 | 6.40276 | 39934 ft | 456 kts | 231° |
| 2026-05-03 21:11 | 52.32954 | 6.32140 | 39930 ft | 457 kts | 231° |
| 2026-05-03 21:12 | 52.29022 | 6.23964 | 39934 ft | 458 kts | 231° |
| 2026-05-03 21:12 | 52.25886 | 6.17462 | 39934 ft | 458 kts | 231° |
| 2026-05-03 21:13 | 52.21800 | 6.09016 | 39934 ft | 457 kts | 231° |
| 2026-05-03 21:13 | 52.18524 | 6.02263 | 39937 ft | 458 kts | 231° |
| 2026-05-03 21:14 | 52.14570 | 5.94139 | 39939 ft | 457 kts | 231° |
| 2026-05-03 21:14 | 52.11285 | 5.87407 | 39942 ft | 458 kts | 231° |
| 2026-05-03 21:15 | 52.07316 | 5.79298 | 39939 ft | 458 kts | 231° |
| 2026-05-03 21:15 | 52.03342 | 5.71205 | 39938 ft | 458 kts | 231° |
| 2026-05-03 21:16 | 51.99365 | 5.63131 | 39928 ft | 458 kts | 231° |
| 2026-05-03 21:16 | 51.95381 | 5.55069 | 39928 ft | 458 kts | 231° |
| 2026-05-03 21:17 | 51.91356 | 5.47092 | 39923 ft | 458 kts | 229° |
| 2026-05-03 21:17 | 51.87134 | 5.39396 | 39933 ft | 458 kts | 227° |
| 2026-05-03 21:18 | 51.82832 | 5.31750 | 39935 ft | 458 kts | 227° |
| 2026-05-03 21:18 | 51.78558 | 5.24107 | 39923 ft | 459 kts | 227° |
| 2026-05-03 21:19 | 51.74289 | 5.16437 | 39926 ft | 459 kts | 227° |
| 2026-05-03 21:19 | 51.70026 | 5.08783 | 39943 ft | 459 kts | 227° |
| 2026-05-03 21:20 | 51.65749 | 5.01127 | 39939 ft | 459 kts | 227° |
| 2026-05-03 21:20 | 51.61472 | 4.93497 | 39938 ft | 459 kts | 227° |
| 2026-05-03 21:21 | 51.57187 | 4.85880 | 39938 ft | 459 kts | 227° |
| 2026-05-03 21:21 | 51.52926 | 4.78316 | 39950 ft | 459 kts | 227° |
| 2026-05-03 21:22 | 51.48627 | 4.70719 | 39931 ft | 460 kts | 227° |
| 2026-05-03 21:22 | 51.44325 | 4.63144 | 39940 ft | 461 kts | 227° |
| 2026-05-03 21:23 | 51.39984 | 4.55522 | 39939 ft | 462 kts | 227° |
| 2026-05-03 21:23 | 51.35649 | 4.47930 | 39925 ft | 462 kts | 227° |
| 2026-05-03 21:24 | 51.31311 | 4.40355 | 39941 ft | 462 kts | 226° |
| 2026-05-03 21:24 | 51.26971 | 4.32799 | 39924 ft | 462 kts | 226° |
| 2026-05-03 21:25 | 51.22625 | 4.25255 | 39937 ft | 462 kts | 226° |
| 2026-05-03 21:25 | 51.18265 | 4.17710 | 39936 ft | 463 kts | 226° |
| 2026-05-03 21:26 | 51.13898 | 4.10165 | 39934 ft | 463 kts | 226° |
| 2026-05-03 21:26 | 51.09565 | 4.02715 | 39933 ft | 463 kts | 226° |
| 2026-05-03 21:27 | 51.05181 | 3.95202 | 39931 ft | 463 kts | 226° |
| 2026-05-03 21:27 | 51.00802 | 3.87716 | 39931 ft | 463 kts | 226° |
| 2026-05-03 21:28 | 50.96416 | 3.80240 | 39936 ft | 463 kts | 226° |
| 2026-05-03 21:28 | 50.92030 | 3.72785 | 39939 ft | 463 kts | 226° |
| 2026-05-03 21:29 | 50.87632 | 3.65331 | 39937 ft | 463 kts | 226° |
| 2026-05-03 21:29 | 50.83223 | 3.57881 | 39923 ft | 463 kts | 226° |
| 2026-05-03 21:30 | 50.78814 | 3.50453 | 39939 ft | 463 kts | 226° |
| 2026-05-03 21:30 | 50.74399 | 3.43037 | 39938 ft | 463 kts | 226° |
| 2026-05-03 21:31 | 50.69983 | 3.35642 | 39935 ft | 463 kts | 226° |
| 2026-05-03 21:31 | 50.65556 | 3.28248 | 39936 ft | 463 kts | 226° |
| 2026-05-03 21:32 | 50.61131 | 3.20875 | 39936 ft | 463 kts | 226° |
| 2026-05-03 21:32 | 50.56708 | 3.13526 | 39927 ft | 462 kts | 226° |
| 2026-05-03 21:33 | 50.52283 | 3.06208 | 39943 ft | 462 kts | 226° |
| 2026-05-03 21:33 | 50.47847 | 2.98891 | 39945 ft | 462 kts | 226° |
| 2026-05-03 21:34 | 50.43409 | 2.91589 | 39945 ft | 462 kts | 226° |
| 2026-05-03 21:34 | 50.38968 | 2.84302 | 39926 ft | 462 kts | 226° |
| 2026-05-03 21:35 | 50.34554 | 2.77080 | 39936 ft | 461 kts | 226° |
| 2026-05-03 21:35 | 50.30108 | 2.69826 | 39932 ft | 462 kts | 225° |
| 2026-05-03 21:36 | 50.25655 | 2.62581 | 39936 ft | 462 kts | 225° |
| 2026-05-03 21:36 | 50.21190 | 2.55340 | 39931 ft | 462 kts | 225° |
| 2026-05-03 21:37 | 50.16725 | 2.48117 | 39925 ft | 462 kts | 225° |
| 2026-05-03 21:37 | 50.12255 | 2.40908 | 39941 ft | 462 kts | 225° |
| 2026-05-03 21:38 | 50.07786 | 2.33722 | 39968 ft | 463 kts | 225° |
| 2026-05-03 21:38 | 50.05545 | 2.30125 | 40117 ft | 462 kts | 225° |
| 2026-05-03 21:38 | 50.03305 | 2.26536 | 40260 ft | 462 kts | 225° |
| 2026-05-03 21:39 | 49.98812 | 2.19339 | 40437 ft | 464 kts | 225° |
| 2026-05-03 21:39 | 49.96563 | 2.15753 | 40559 ft | 464 kts | 225° |
| 2026-05-03 21:39 | 49.94306 | 2.12160 | 40654 ft | 464 kts | 225° |
| 2026-05-03 21:40 | 49.92055 | 2.08582 | 40780 ft | 464 kts | 225° |
| 2026-05-03 21:40 | 49.89797 | 2.04996 | 40892 ft | 464 kts | 225° |
| 2026-05-03 21:40 | 49.85274 | 1.97828 | 40939 ft | 465 kts | 225° |
| 2026-05-03 21:41 | 49.80780 | 1.90711 | 40941 ft | 465 kts | 225° |
| 2026-05-03 21:41 | 49.76250 | 1.83573 | 40938 ft | 465 kts | 225° |
| 2026-05-03 21:42 | 49.71715 | 1.76452 | 40938 ft | 465 kts | 225° |
| 2026-05-03 21:42 | 49.67174 | 1.69335 | 40941 ft | 465 kts | 225° |
| 2026-05-03 21:43 | 49.62620 | 1.62213 | 40940 ft | 466 kts | 225° |
| 2026-05-03 21:43 | 49.58069 | 1.55113 | 40948 ft | 466 kts | 225° |
| 2026-05-03 21:44 | 49.53502 | 1.48021 | 40951 ft | 466 kts | 225° |
| 2026-05-03 21:44 | 49.48970 | 1.40999 | 40956 ft | 465 kts | 225° |
| 2026-05-03 21:45 | 49.44384 | 1.33911 | 40971 ft | 465 kts | 225° |
| 2026-05-03 21:45 | 49.39827 | 1.26889 | 40968 ft | 465 kts | 225° |
| 2026-05-03 21:46 | 49.35276 | 1.19895 | 40964 ft | 465 kts | 225° |
| 2026-05-03 21:46 | 49.30673 | 1.12840 | 40965 ft | 465 kts | 225° |
| 2026-05-03 21:47 | 49.26100 | 1.05850 | 40961 ft | 464 kts | 225° |
| 2026-05-03 21:47 | 49.21527 | 0.98881 | 40957 ft | 464 kts | 225° |
| 2026-05-03 21:48 | 49.17022 | 0.92033 | 40947 ft | 464 kts | 225° |
| 2026-05-03 21:48 | 49.13189 | 0.86221 | 40954 ft | 464 kts | 225° |
| 2026-05-03 21:49 | 49.08605 | 0.79290 | 40947 ft | 463 kts | 225° |
| 2026-05-03 21:49 | 49.04029 | 0.72387 | 40947 ft | 462 kts | 225° |
| 2026-05-03 21:50 | 48.99456 | 0.65509 | 40953 ft | 462 kts | 225° |
| 2026-05-03 21:50 | 48.94874 | 0.58636 | 40950 ft | 462 kts | 225° |
| 2026-05-03 21:51 | 48.90296 | 0.51777 | 40948 ft | 462 kts | 224° |
| 2026-05-03 21:51 | 48.85703 | 0.44931 | 40947 ft | 462 kts | 224° |
| 2026-05-03 21:52 | 48.81137 | 0.38141 | 40953 ft | 463 kts | 224° |
| 2026-05-03 21:52 | 48.76528 | 0.31304 | 40952 ft | 464 kts | 224° |
| 2026-05-03 21:53 | 48.71910 | 0.24470 | 40949 ft | 464 kts | 224° |
| 2026-05-03 21:53 | 48.67291 | 0.17655 | 40950 ft | 464 kts | 224° |
| 2026-05-03 21:54 | 48.62668 | 0.10850 | 40953 ft | 463 kts | 224° |
| 2026-05-03 21:54 | 48.58049 | 0.04070 | 40955 ft | 462 kts | 224° |
| 2026-05-03 21:55 | 48.53437 | -0.02682 | 40963 ft | 462 kts | 224° |
| 2026-05-03 21:55 | 48.48801 | -0.09450 | 40957 ft | 464 kts | 224° |
| 2026-05-03 21:56 | 48.44164 | -0.16202 | 40962 ft | 464 kts | 224° |
| 2026-05-03 21:56 | 48.39499 | -0.22968 | 40956 ft | 464 kts | 224° |
| 2026-05-03 21:57 | 48.34884 | -0.29656 | 40960 ft | 464 kts | 224° |
| 2026-05-03 21:57 | 48.30237 | -0.36374 | 40960 ft | 464 kts | 224° |
| 2026-05-03 21:58 | 48.25580 | -0.43084 | 40962 ft | 464 kts | 224° |
| 2026-05-03 21:58 | 48.20924 | -0.49771 | 40959 ft | 464 kts | 224° |
| 2026-05-03 21:59 | 48.16269 | -0.56441 | 40965 ft | 462 kts | 224° |
| 2026-05-03 21:59 | 48.11611 | -0.63097 | 40966 ft | 462 kts | 224° |
| 2026-05-03 22:00 | 48.06956 | -0.69733 | 40967 ft | 462 kts | 224° |
| 2026-05-03 22:00 | 48.02298 | -0.76355 | 40964 ft | 462 kts | 224° |
| 2026-05-03 22:01 | 47.97637 | -0.82965 | 40967 ft | 462 kts | 223° |
| 2026-05-03 22:01 | 47.92978 | -0.89553 | 40967 ft | 462 kts | 223° |
| 2026-05-03 22:02 | 47.89091 | -0.95037 | 40960 ft | 463 kts | 223° |
| 2026-05-03 22:02 | 47.84404 | -1.01635 | 40961 ft | 463 kts | 223° |
| 2026-05-03 22:03 | 47.79718 | -1.08214 | 40951 ft | 463 kts | 223° |
| 2026-05-03 22:03 | 47.75038 | -1.14765 | 40961 ft | 462 kts | 223° |
| 2026-05-03 22:04 | 47.70354 | -1.21307 | 40962 ft | 462 kts | 223° |
| 2026-05-03 22:04 | 47.65670 | -1.27832 | 40966 ft | 462 kts | 223° |
| 2026-05-03 22:05 | 47.60969 | -1.34363 | 40960 ft | 463 kts | 223° |
| 2026-05-03 22:05 | 47.56291 | -1.40845 | 40960 ft | 463 kts | 223° |
| 2026-05-03 22:06 | 47.51585 | -1.47359 | 40961 ft | 463 kts | 223° |
| 2026-05-03 22:06 | 47.46881 | -1.53843 | 40961 ft | 463 kts | 223° |
| 2026-05-03 22:07 | 47.42163 | -1.60325 | 40963 ft | 463 kts | 223° |
| 2026-05-03 22:07 | 47.37447 | -1.66791 | 40978 ft | 463 kts | 223° |
| 2026-05-03 22:08 | 47.32722 | -1.73255 | 40964 ft | 464 kts | 223° |
| 2026-05-03 22:08 | 47.27993 | -1.79709 | 40964 ft | 464 kts | 223° |
| 2026-05-03 22:09 | 47.23256 | -1.86166 | 40964 ft | 464 kts | 223° |
| 2026-05-03 22:10 | 47.16164 | -1.95783 | 40953 ft | 464 kts | 223° |
| 2026-05-03 22:10 | 47.11418 | -2.02198 | 40963 ft | 463 kts | 223° |
| 2026-05-03 22:11 | 47.06672 | -2.08599 | 40966 ft | 464 kts | 223° |
| 2026-05-03 22:11 | 47.01922 | -2.14992 | 40963 ft | 465 kts | 223° |
| 2026-05-03 22:12 | 46.97146 | -2.21403 | 40963 ft | 465 kts | 223° |
| 2026-05-03 22:12 | 46.92378 | -2.27787 | 40965 ft | 465 kts | 223° |
| 2026-05-03 22:13 | 46.87602 | -2.34137 | 40961 ft | 464 kts | 221° |
| 2026-05-03 22:13 | 46.82315 | -2.39556 | 40966 ft | 464 kts | 213° |
| 2026-05-03 22:14 | 46.76788 | -2.44468 | 40983 ft | 465 kts | 212° |
| 2026-05-03 22:14 | 46.71227 | -2.49290 | 40968 ft | 465 kts | 212° |
| 2026-05-03 22:15 | 46.65660 | -2.54119 | 40968 ft | 466 kts | 212° |
| 2026-05-03 22:15 | 46.60103 | -2.58951 | 40975 ft | 465 kts | 212° |
| 2026-05-03 22:16 | 46.54547 | -2.63779 | 40971 ft | 465 kts | 212° |
| 2026-05-03 22:16 | 46.48989 | -2.68598 | 40971 ft | 465 kts | 212° |
| 2026-05-03 22:17 | 46.43433 | -2.73402 | 40972 ft | 464 kts | 212° |
| 2026-05-03 22:17 | 46.37918 | -2.78159 | 40971 ft | 464 kts | 212° |
| 2026-05-03 22:18 | 46.32364 | -2.82938 | 40975 ft | 465 kts | 212° |
| 2026-05-03 22:18 | 46.26805 | -2.87710 | 40973 ft | 465 kts | 212° |
| 2026-05-03 22:19 | 46.21261 | -2.92514 | 40977 ft | 465 kts | 212° |
| 2026-05-03 22:19 | 46.15730 | -2.97342 | 40976 ft | 465 kts | 212° |
| 2026-05-03 22:20 | 46.10189 | -3.02165 | 40979 ft | 464 kts | 212° |
| 2026-05-03 22:20 | 46.04666 | -3.06951 | 40983 ft | 463 kts | 212° |
| 2026-05-03 22:21 | 45.99150 | -3.11718 | 40980 ft | 462 kts | 212° |
| 2026-05-03 22:21 | 45.93632 | -3.16475 | 40990 ft | 463 kts | 212° |
| 2026-05-03 22:22 | 45.88104 | -3.21229 | 40982 ft | 463 kts | 212° |
| 2026-05-03 22:22 | 45.82562 | -3.25984 | 40983 ft | 463 kts | 212° |
| 2026-05-03 22:23 | 45.77022 | -3.30726 | 40986 ft | 463 kts | 212° |
| 2026-05-03 22:23 | 45.71488 | -3.35452 | 40977 ft | 463 kts | 212° |
| 2026-05-03 22:24 | 45.65983 | -3.40142 | 40992 ft | 464 kts | 212° |
| 2026-05-03 22:24 | 45.60429 | -3.44864 | 40988 ft | 464 kts | 212° |
| 2026-05-03 22:25 | 45.54884 | -3.49567 | 40992 ft | 464 kts | 212° |
| 2026-05-03 22:25 | 45.49328 | -3.54268 | 40989 ft | 465 kts | 211° |
| 2026-05-03 22:26 | 45.43763 | -3.58965 | 40988 ft | 465 kts | 211° |
| 2026-05-03 22:26 | 45.38200 | -3.63650 | 40991 ft | 465 kts | 211° |
| 2026-05-03 22:27 | 45.32624 | -3.68335 | 40993 ft | 465 kts | 211° |
| 2026-05-03 22:27 | 45.27060 | -3.73000 | 40993 ft | 464 kts | 211° |
| 2026-05-03 22:28 | 45.21505 | -3.77646 | 40991 ft | 463 kts | 211° |
| 2026-05-03 22:28 | 45.15988 | -3.82250 | 40994 ft | 463 kts | 211° |
| 2026-05-03 22:29 | 45.10431 | -3.86876 | 40992 ft | 463 kts | 211° |
| 2026-05-03 22:29 | 45.04870 | -3.91496 | 40995 ft | 464 kts | 211° |
| 2026-05-03 22:30 | 44.99290 | -3.96120 | 41031 ft | 465 kts | 211° |
| 2026-05-03 22:30 | 44.93705 | -4.00738 | 41243 ft | 465 kts | 211° |
| 2026-05-03 22:31 | 44.88107 | -4.05357 | 41367 ft | 467 kts | 211° |
| 2026-05-03 22:31 | 44.82487 | -4.09983 | 41567 ft | 468 kts | 211° |
| 2026-05-03 22:32 | 44.76868 | -4.14597 | 41741 ft | 468 kts | 211° |
| 2026-05-03 22:32 | 44.71268 | -4.19185 | 41928 ft | 468 kts | 211° |
| 2026-05-03 22:33 | 44.65598 | -4.23821 | 42088 ft | 469 kts | 211° |
| 2026-05-03 22:33 | 44.59997 | -4.28389 | 42257 ft | 469 kts | 211° |
| 2026-05-03 22:34 | 44.54354 | -4.32982 | 42382 ft | 469 kts | 211° |
| 2026-05-03 22:34 | 44.48711 | -4.37564 | 42575 ft | 468 kts | 211° |
| 2026-05-03 22:35 | 44.43066 | -4.42137 | 42708 ft | 468 kts | 211° |
| 2026-05-03 22:35 | 44.37436 | -4.46742 | 42813 ft | 469 kts | 212° |
| 2026-05-03 22:36 | 44.31869 | -4.51490 | 42933 ft | 469 kts | 213° |
| 2026-05-03 22:36 | 44.26309 | -4.56241 | 43079 ft | 468 kts | 213° |
| 2026-05-03 22:37 | 44.20732 | -4.60964 | 43142 ft | 469 kts | 212° |
| 2026-05-03 22:37 | 44.15145 | -4.65667 | 43248 ft | 469 kts | 212° |
| 2026-05-03 22:38 | 44.09552 | -4.70360 | 43360 ft | 469 kts | 212° |
| 2026-05-03 22:38 | 44.03955 | -4.75047 | 43423 ft | 469 kts | 212° |
| 2026-05-03 22:39 | 43.98359 | -4.79725 | 43511 ft | 469 kts | 212° |
| 2026-05-03 22:39 | 43.92766 | -4.84389 | 43576 ft | 469 kts | 212° |
| 2026-05-03 22:40 | 43.87164 | -4.89051 | 43691 ft | 469 kts | 212° |
| 2026-05-03 22:40 | 43.81605 | -4.93667 | 43759 ft | 469 kts | 212° |
| 2026-05-03 22:41 | 43.76001 | -4.98310 | 43784 ft | 470 kts | 212° |
| 2026-05-03 22:41 | 43.70382 | -5.02954 | 43838 ft | 470 kts | 212° |
| 2026-05-03 22:42 | 43.64777 | -5.07576 | 43935 ft | 469 kts | 212° |
| 2026-05-03 22:42 | 43.59175 | -5.12187 | 43964 ft | 469 kts | 212° |
| 2026-05-03 22:43 | 43.53567 | -5.16793 | 44033 ft | 469 kts | 212° |
| 2026-05-03 22:43 | 43.47960 | -5.21387 | 44093 ft | 469 kts | 212° |
| 2026-05-03 22:44 | 43.42347 | -5.25976 | 44143 ft | 469 kts | 212° |
| 2026-05-03 22:44 | 43.36746 | -5.30545 | 44168 ft | 469 kts | 212° |
| 2026-05-03 22:45 | 43.31127 | -5.35120 | 44206 ft | 470 kts | 212° |
| 2026-05-03 22:45 | 43.25499 | -5.39692 | 44188 ft | 470 kts | 212° |
| 2026-05-03 22:46 | 43.19866 | -5.44258 | 44222 ft | 470 kts | 212° |
| 2026-05-03 22:46 | 43.14227 | -5.48818 | 44241 ft | 471 kts | 212° |
| 2026-05-03 22:47 | 43.08595 | -5.53363 | 44281 ft | 471 kts | 212° |
| 2026-05-03 22:47 | 43.02981 | -5.57884 | 44332 ft | 471 kts | 212° |
| 2026-05-03 22:48 | 42.97334 | -5.62422 | 44378 ft | 471 kts | 212° |
| 2026-05-03 22:48 | 42.91688 | -5.66950 | 44391 ft | 471 kts | 212° |
| 2026-05-03 22:49 | 42.86986 | -5.70712 | 44396 ft | 471 kts | 212° |
| 2026-05-03 22:49 | 42.81351 | -5.75211 | 44492 ft | 469 kts | 212° |
| 2026-05-03 22:50 | 42.75712 | -5.79706 | 44495 ft | 470 kts | 212° |
| 2026-05-03 22:50 | 42.70070 | -5.84194 | 44502 ft | 470 kts | 212° |
| 2026-05-03 22:51 | 42.64430 | -5.88669 | 44507 ft | 470 kts | 212° |
| 2026-05-03 22:51 | 42.58772 | -5.93150 | 44519 ft | 470 kts | 212° |
| 2026-05-03 22:52 | 42.53124 | -5.97613 | 44528 ft | 470 kts | 212° |
| 2026-05-03 22:52 | 42.47467 | -6.02074 | 44529 ft | 470 kts | 212° |
| 2026-05-03 22:53 | 42.41807 | -6.06528 | 44568 ft | 470 kts | 212° |
| 2026-05-03 22:53 | 42.36146 | -6.10973 | 44548 ft | 471 kts | 212° |
| 2026-05-03 22:54 | 42.30457 | -6.15431 | 44258 ft | 473 kts | 212° |
| 2026-05-03 22:54 | 42.27613 | -6.17656 | 43489 ft | 473 kts | 212° |
| 2026-05-03 22:54 | 42.24751 | -6.19894 | 43063 ft | 477 kts | 212° |
| 2026-05-03 22:55 | 42.19002 | -6.24379 | 43003 ft | 478 kts | 212° |
| 2026-05-03 22:55 | 42.13233 | -6.28871 | 43005 ft | 478 kts | 212° |
| 2026-05-03 22:56 | 42.07509 | -6.33317 | 43007 ft | 479 kts | 212° |
| 2026-05-03 22:56 | 42.01731 | -6.37798 | 42991 ft | 479 kts | 212° |
| 2026-05-03 22:57 | 41.95960 | -6.42263 | 43009 ft | 478 kts | 212° |
| 2026-05-03 22:57 | 41.90193 | -6.46715 | 43015 ft | 478 kts | 212° |
| 2026-05-03 22:58 | 41.84408 | -6.51172 | 43004 ft | 479 kts | 212° |
| 2026-05-03 22:58 | 41.78630 | -6.55614 | 42997 ft | 479 kts | 212° |
| 2026-05-03 22:59 | 41.72853 | -6.60046 | 43010 ft | 478 kts | 212° |
| 2026-05-03 22:59 | 41.67121 | -6.64557 | 43012 ft | 477 kts | 215° |
| 2026-05-03 23:00 | 41.61675 | -6.69620 | 43016 ft | 476 kts | 218° |
| 2026-05-03 23:00 | 41.56297 | -6.74770 | 43006 ft | 475 kts | 217° |
| 2026-05-03 23:01 | 41.50876 | -6.79833 | 43021 ft | 475 kts | 217° |
| 2026-05-03 23:01 | 41.45469 | -6.84796 | 43028 ft | 475 kts | 217° |
| 2026-05-03 23:02 | 41.40008 | -6.89778 | 43022 ft | 476 kts | 217° |
| 2026-05-03 23:02 | 41.34535 | -6.94761 | 42999 ft | 476 kts | 217° |
| 2026-05-03 23:03 | 41.29085 | -6.99718 | 43036 ft | 475 kts | 217° |
| 2026-05-03 23:03 | 41.23625 | -7.04675 | 43023 ft | 474 kts | 217° |
| 2026-05-03 23:04 | 41.18172 | -7.09617 | 43020 ft | 474 kts | 217° |
| 2026-05-03 23:04 | 41.12717 | -7.14550 | 43045 ft | 474 kts | 217° |
| 2026-05-03 23:05 | 41.07309 | -7.19430 | 43038 ft | 473 kts | 217° |
| 2026-05-03 23:05 | 41.01863 | -7.24335 | 43042 ft | 474 kts | 217° |
| 2026-05-03 23:06 | 40.96402 | -7.29243 | 43022 ft | 475 kts | 217° |
| 2026-05-03 23:06 | 40.90931 | -7.34150 | 43050 ft | 475 kts | 216° |
| 2026-05-03 23:07 | 40.85464 | -7.39044 | 43047 ft | 474 kts | 217° |
| 2026-05-03 23:07 | 40.79986 | -7.43937 | 43046 ft | 475 kts | 216° |
| 2026-05-03 23:08 | 40.74521 | -7.48808 | 43058 ft | 474 kts | 216° |
| 2026-05-03 23:08 | 40.69047 | -7.53676 | 43059 ft | 474 kts | 216° |
| 2026-05-03 23:09 | 40.63573 | -7.58537 | 43048 ft | 474 kts | 217° |
| 2026-05-03 23:09 | 40.58105 | -7.63383 | 43061 ft | 473 kts | 216° |
| 2026-05-03 23:10 | 40.52639 | -7.68218 | 43064 ft | 474 kts | 216° |
| 2026-05-03 23:10 | 40.47172 | -7.73043 | 43063 ft | 474 kts | 216° |
| 2026-05-03 23:11 | 40.41698 | -7.77865 | 43059 ft | 474 kts | 216° |
| 2026-05-03 23:11 | 40.36225 | -7.82675 | 43062 ft | 474 kts | 216° |
| 2026-05-03 23:12 | 40.30749 | -7.87480 | 43062 ft | 474 kts | 216° |
| 2026-05-03 23:12 | 40.25301 | -7.92250 | 43067 ft | 474 kts | 216° |
| 2026-05-03 23:13 | 40.19819 | -7.97040 | 43051 ft | 471 kts | 216° |
| 2026-05-03 23:13 | 40.14421 | -8.01743 | 43060 ft | 463 kts | 216° |
| 2026-05-03 23:14 | 40.09071 | -8.06402 | 43070 ft | 462 kts | 216° |
| 2026-05-03 23:14 | 40.03730 | -8.11043 | 43074 ft | 461 kts | 216° |
| 2026-05-03 23:15 | 39.98384 | -8.15680 | 43071 ft | 461 kts | 216° |
| 2026-05-03 23:15 | 39.93032 | -8.20312 | 43067 ft | 461 kts | 216° |
| 2026-05-03 23:16 | 39.87697 | -8.24920 | 43069 ft | 460 kts | 216° |
| 2026-05-03 23:16 | 39.82369 | -8.29513 | 43071 ft | 459 kts | 216° |
| 2026-05-03 23:17 | 39.77036 | -8.34103 | 43071 ft | 460 kts | 216° |
| 2026-05-03 23:17 | 39.71725 | -8.38665 | 43069 ft | 460 kts | 216° |
| 2026-05-03 23:18 | 39.66348 | -8.43274 | 43073 ft | 460 kts | 216° |
| 2026-05-03 23:18 | 39.61049 | -8.47809 | 43075 ft | 460 kts | 216° |
| 2026-05-03 23:19 | 39.55705 | -8.52373 | 43076 ft | 460 kts | 216° |
| 2026-05-03 23:19 | 39.50367 | -8.56924 | 43075 ft | 460 kts | 216° |
| 2026-05-03 23:20 | 39.45022 | -8.61471 | 43074 ft | 459 kts | 216° |
| 2026-05-03 23:20 | 39.39699 | -8.65992 | 43078 ft | 458 kts | 216° |
| 2026-05-03 23:21 | 39.34368 | -8.70512 | 43079 ft | 458 kts | 216° |
| 2026-05-03 23:21 | 39.29036 | -8.75025 | 43078 ft | 458 kts | 216° |
| 2026-05-03 23:22 | 39.21022 | -8.81790 | 43082 ft | 458 kts | 217° |
| 2026-05-03 23:22 | 39.15695 | -8.86276 | 43083 ft | 457 kts | 217° |
| 2026-05-03 23:23 | 39.10361 | -8.90761 | 43080 ft | 457 kts | 217° |
| 2026-05-03 23:23 | 39.05027 | -8.95238 | 43085 ft | 457 kts | 217° |
| 2026-05-03 23:24 | 38.99701 | -8.99699 | 43064 ft | 457 kts | 217° |
| 2026-05-03 23:24 | 38.94404 | -9.04127 | 43083 ft | 456 kts | 217° |
| 2026-05-03 23:25 | 38.89075 | -9.08574 | 43084 ft | 456 kts | 217° |
| 2026-05-03 23:25 | 38.83760 | -9.13003 | 43075 ft | 457 kts | 217° |
| 2026-05-03 23:26 | 38.78419 | -9.17446 | 43075 ft | 457 kts | 217° |
| 2026-05-03 23:26 | 38.73083 | -9.21875 | 43078 ft | 457 kts | 217° |
| 2026-05-03 23:27 | 38.67751 | -9.26292 | 43081 ft | 456 kts | 217° |
| 2026-05-03 23:27 | 38.62591 | -9.30560 | 43085 ft | 455 kts | 217° |
| 2026-05-03 23:28 | 38.58018 | -9.34336 | 43096 ft | 455 kts | 217° |
| 2026-05-03 23:28 | 38.52703 | -9.38718 | 43088 ft | 455 kts | 217° |
| 2026-05-03 23:29 | 38.47580 | -9.42934 | 43084 ft | 455 kts | 217° |
| 2026-05-03 23:29 | 38.42476 | -9.47126 | 43091 ft | 454 kts | 217° |
| 2026-05-03 23:30 | 38.37193 | -9.51460 | 43095 ft | 455 kts | 217° |
| 2026-05-03 23:30 | 38.31865 | -9.55822 | 43101 ft | 455 kts | 217° |
| 2026-05-03 23:31 | 38.26531 | -9.60182 | 43094 ft | 455 kts | 217° |
| 2026-05-03 23:31 | 38.21209 | -9.64522 | 43095 ft | 453 kts | 217° |
| 2026-05-03 23:32 | 38.15904 | -9.68841 | 43103 ft | 453 kts | 217° |
| 2026-05-03 23:32 | 38.10631 | -9.73128 | 43102 ft | 452 kts | 217° |
| 2026-05-03 23:33 | 38.05324 | -9.77436 | 43103 ft | 453 kts | 217° |
| 2026-05-03 23:33 | 37.99994 | -9.81756 | 43100 ft | 456 kts | 217° |
| 2026-05-03 23:34 | 37.95551 | -9.85393 | 43108 ft | 458 kts | 217° |
| 2026-05-03 23:34 | 37.90197 | -9.89837 | 43102 ft | 460 kts | 217° |
| 2026-05-03 23:35 | 37.84826 | -9.94287 | 43106 ft | 462 kts | 217° |
| 2026-05-03 23:35 | 37.79434 | -9.98733 | 43109 ft | 463 kts | 217° |
| 2026-05-03 23:36 | 37.74026 | -10.03179 | 43099 ft | 463 kts | 217° |
| 2026-05-03 23:36 | 37.68628 | -10.07608 | 43107 ft | 463 kts | 217° |
| 2026-05-03 23:37 | 37.63228 | -10.12032 | 43111 ft | 463 kts | 217° |
| 2026-05-03 23:37 | 37.57826 | -10.16449 | 43111 ft | 463 kts | 217° |
| 2026-05-03 23:38 | 37.52423 | -10.20861 | 43114 ft | 463 kts | 217° |
| 2026-05-03 23:38 | 37.47054 | -10.25236 | 43129 ft | 462 kts | 217° |
| 2026-05-03 23:39 | 37.41653 | -10.29630 | 43116 ft | 462 kts | 217° |
| 2026-05-03 23:39 | 37.36252 | -10.34017 | 43115 ft | 462 kts | 217° |
| 2026-05-03 23:40 | 37.30857 | -10.38391 | 43117 ft | 462 kts | 217° |
| 2026-05-03 23:40 | 37.25448 | -10.42770 | 43089 ft | 462 kts | 217° |
| 2026-05-03 23:41 | 37.20053 | -10.47127 | 43119 ft | 461 kts | 217° |
| 2026-05-03 23:41 | 37.14668 | -10.51471 | 43118 ft | 460 kts | 217° |
| 2026-05-03 23:42 | 37.09280 | -10.55810 | 43120 ft | 460 kts | 217° |
| 2026-05-03 23:42 | 37.03886 | -10.60146 | 43123 ft | 461 kts | 217° |
| 2026-05-03 23:43 | 36.98486 | -10.64479 | 43105 ft | 460 kts | 217° |
| 2026-05-03 23:43 | 36.93096 | -10.68796 | 43124 ft | 460 kts | 217° |
| 2026-05-03 23:44 | 36.88105 | -10.72788 | 43124 ft | 460 kts | 217° |
| 2026-05-03 23:44 | 36.82712 | -10.77094 | 43127 ft | 460 kts | 217° |
| 2026-05-03 23:45 | 36.77325 | -10.81388 | 43127 ft | 460 kts | 217° |
| 2026-05-03 23:45 | 36.71923 | -10.85686 | 43121 ft | 459 kts | 217° |
| 2026-05-03 23:46 | 36.66539 | -10.89963 | 43133 ft | 459 kts | 217° |
| 2026-05-03 23:46 | 36.61195 | -10.94201 | 43132 ft | 459 kts | 217° |
| 2026-05-03 23:47 | 36.56188 | -10.98166 | 43132 ft | 459 kts | 217° |
| 2026-05-03 23:47 | 36.50868 | -11.02372 | 43132 ft | 459 kts | 217° |
| 2026-05-03 23:48 | 36.45473 | -11.06630 | 43127 ft | 459 kts | 217° |
| 2026-05-03 23:48 | 36.40098 | -11.10863 | 43129 ft | 458 kts | 217° |
| 2026-05-03 23:49 | 36.34716 | -11.15097 | 43132 ft | 458 kts | 217° |
| 2026-05-03 23:49 | 36.29329 | -11.19328 | 43139 ft | 458 kts | 217° |
| 2026-05-03 23:50 | 36.24856 | -11.22835 | 43134 ft | 458 kts | 217° |
| 2026-05-03 23:50 | 36.18570 | -11.27755 | 43127 ft | 456 kts | 217° |
| 2026-05-03 23:51 | 36.13209 | -11.31943 | 43140 ft | 455 kts | 217° |
| 2026-05-03 23:51 | 36.07880 | -11.36101 | 43137 ft | 456 kts | 217° |
| 2026-05-03 23:52 | 36.02516 | -11.40280 | 43139 ft | 456 kts | 217° |
| 2026-05-03 23:52 | 35.97125 | -11.44420 | 43143 ft | 458 kts | 214° |
| 2026-05-03 23:53 | 35.91465 | -11.48064 | 43142 ft | 459 kts | 212° |
| 2026-05-03 23:53 | 35.85774 | -11.51632 | 43145 ft | 459 kts | 212° |
| 2026-05-03 23:54 | 35.80071 | -11.55193 | 43127 ft | 459 kts | 212° |
| 2026-05-03 23:54 | 35.74373 | -11.58742 | 43124 ft | 459 kts | 212° |
| 2026-05-03 23:55 | 35.68673 | -11.62286 | 43141 ft | 459 kts | 212° |
| 2026-05-03 23:55 | 35.63012 | -11.65800 | 43139 ft | 458 kts | 212° |
| 2026-05-03 23:56 | 35.57313 | -11.69332 | 43141 ft | 459 kts | 212° |
| 2026-05-03 23:56 | 35.51611 | -11.72860 | 43144 ft | 459 kts | 212° |
| 2026-05-03 23:57 | 35.45910 | -11.76382 | 43143 ft | 459 kts | 212° |
| 2026-05-03 23:57 | 35.40212 | -11.79896 | 43143 ft | 458 kts | 212° |
| 2026-05-03 23:58 | 35.34515 | -11.83404 | 43145 ft | 459 kts | 212° |
| 2026-05-03 23:58 | 35.28806 | -11.86913 | 43143 ft | 459 kts | 212° |
| 2026-05-03 23:59 | 35.23135 | -11.90395 | 43143 ft | 459 kts | 212° |
| 2026-05-03 23:59 | 35.17432 | -11.93890 | 43143 ft | 459 kts | 212° |
| 2026-05-04 00:00 | 35.11726 | -11.97381 | 43147 ft | 458 kts | 212° |
| 2026-05-04 00:00 | 35.06011 | -12.00873 | 43145 ft | 459 kts | 212° |
| 2026-05-04 00:01 | 35.00294 | -12.04360 | 43143 ft | 459 kts | 212° |
| 2026-05-04 00:01 | 34.94578 | -12.07841 | 43146 ft | 460 kts | 212° |
| 2026-05-04 00:02 | 34.88851 | -12.11323 | 43120 ft | 460 kts | 212° |
| 2026-05-04 00:02 | 34.83131 | -12.14795 | 43146 ft | 459 kts | 212° |
| 2026-05-04 00:03 | 34.77416 | -12.18260 | 43146 ft | 459 kts | 212° |
| 2026-05-04 00:03 | 34.71695 | -12.21723 | 43148 ft | 459 kts | 212° |
| 2026-05-04 00:04 | 34.66006 | -12.25160 | 43148 ft | 459 kts | 212° |
| 2026-05-04 00:04 | 34.60285 | -12.28612 | 43142 ft | 459 kts | 212° |
| 2026-05-04 00:05 | 34.54570 | -12.32054 | 43143 ft | 459 kts | 212° |
| 2026-05-04 00:05 | 34.48849 | -12.35495 | 43163 ft | 459 kts | 212° |
| 2026-05-04 00:06 | 34.43134 | -12.38928 | 43157 ft | 459 kts | 212° |
| 2026-05-04 00:06 | 34.37417 | -12.42356 | 43140 ft | 459 kts | 212° |
| 2026-05-04 00:07 | 34.31693 | -12.45782 | 43149 ft | 458 kts | 212° |
| 2026-05-04 00:07 | 34.25985 | -12.49194 | 43149 ft | 458 kts | 212° |
| 2026-05-04 00:08 | 34.20275 | -12.52603 | 43150 ft | 458 kts | 212° |
| 2026-05-04 00:08 | 34.14560 | -12.56009 | 43144 ft | 458 kts | 212° |
| 2026-05-04 00:09 | 34.08847 | -12.59408 | 43143 ft | 458 kts | 212° |
| 2026-05-04 00:09 | 34.03138 | -12.62801 | 43142 ft | 457 kts | 212° |
| 2026-05-04 00:10 | 33.97441 | -12.66181 | 43149 ft | 456 kts | 212° |
| 2026-05-04 00:10 | 33.91778 | -12.69535 | 43148 ft | 456 kts | 212° |
| 2026-05-04 00:11 | 33.86076 | -12.72908 | 43149 ft | 456 kts | 212° |
| 2026-05-04 00:11 | 33.80378 | -12.76274 | 43126 ft | 456 kts | 212° |
| 2026-05-04 00:12 | 33.74678 | -12.79635 | 43149 ft | 456 kts | 211° |
| 2026-05-04 00:12 | 33.68986 | -12.82987 | 43148 ft | 456 kts | 211° |
| 2026-05-04 00:13 | 33.63289 | -12.86336 | 43146 ft | 456 kts | 211° |
| 2026-05-04 00:13 | 33.57597 | -12.89678 | 43146 ft | 456 kts | 211° |
| 2026-05-04 00:14 | 33.51900 | -12.93018 | 43141 ft | 455 kts | 211° |
| 2026-05-04 00:14 | 33.46213 | -12.96347 | 43148 ft | 454 kts | 211° |
| 2026-05-04 00:15 | 33.40569 | -12.99646 | 43148 ft | 454 kts | 211° |
| 2026-05-04 00:15 | 33.34888 | -13.02963 | 43148 ft | 454 kts | 211° |
| 2026-05-04 00:16 | 33.29217 | -13.06268 | 43152 ft | 454 kts | 211° |
| 2026-05-04 00:16 | 33.23535 | -13.09574 | 43139 ft | 453 kts | 211° |
| 2026-05-04 00:17 | 33.17868 | -13.12867 | 43147 ft | 452 kts | 211° |
| 2026-05-04 00:17 | 33.12205 | -13.16155 | 43148 ft | 453 kts | 211° |
| 2026-05-04 00:18 | 33.06533 | -13.19441 | 43145 ft | 453 kts | 211° |
| 2026-05-04 00:18 | 33.00865 | -13.22720 | 43146 ft | 453 kts | 211° |
| 2026-05-04 00:19 | 32.95196 | -13.25996 | 43150 ft | 453 kts | 211° |
| 2026-05-04 00:19 | 32.90484 | -13.28715 | 43149 ft | 453 kts | 211° |
| 2026-05-04 00:20 | 32.84819 | -13.31980 | 43149 ft | 453 kts | 211° |
| 2026-05-04 00:20 | 32.79150 | -13.35242 | 43141 ft | 453 kts | 211° |
| 2026-05-04 00:21 | 32.73480 | -13.38500 | 43145 ft | 453 kts | 211° |
| 2026-05-04 00:21 | 32.67809 | -13.41755 | 43132 ft | 453 kts | 211° |
| 2026-05-04 00:22 | 32.62127 | -13.45010 | 43146 ft | 453 kts | 211° |
| 2026-05-04 00:22 | 32.56457 | -13.48255 | 43146 ft | 453 kts | 211° |
| 2026-05-04 00:23 | 32.50779 | -13.51499 | 43146 ft | 453 kts | 211° |
| 2026-05-04 00:23 | 32.45101 | -13.54739 | 43147 ft | 453 kts | 211° |
| 2026-05-04 00:24 | 32.39419 | -13.57976 | 43143 ft | 453 kts | 211° |
| 2026-05-04 00:24 | 32.33748 | -13.61203 | 43147 ft | 452 kts | 211° |
| 2026-05-04 00:25 | 32.28106 | -13.64409 | 43147 ft | 452 kts | 211° |
| 2026-05-04 00:25 | 32.22434 | -13.67627 | 43145 ft | 452 kts | 211° |
| 2026-05-04 00:26 | 32.16761 | -13.70842 | 43146 ft | 452 kts | 211° |
| 2026-05-04 00:26 | 32.11088 | -13.74052 | 43138 ft | 451 kts | 211° |
| 2026-05-04 00:27 | 32.05430 | -13.77249 | 43142 ft | 451 kts | 211° |
| 2026-05-04 00:27 | 31.99772 | -13.80442 | 43150 ft | 450 kts | 211° |
| 2026-05-04 00:28 | 31.94159 | -13.83605 | 43145 ft | 450 kts | 211° |
| 2026-05-04 00:28 | 31.88500 | -13.86789 | 43146 ft | 451 kts | 211° |
| 2026-05-04 00:29 | 31.82843 | -13.89968 | 43135 ft | 450 kts | 211° |
| 2026-05-04 00:29 | 31.77190 | -13.93141 | 43141 ft | 450 kts | 211° |
| 2026-05-04 00:30 | 31.71538 | -13.96308 | 43143 ft | 450 kts | 211° |
| 2026-05-04 00:30 | 31.65888 | -13.99471 | 43143 ft | 450 kts | 211° |
| 2026-05-04 00:31 | 31.60241 | -14.02627 | 43147 ft | 450 kts | 211° |
| 2026-05-04 00:31 | 31.54583 | -14.05785 | 43146 ft | 450 kts | 211° |
| 2026-05-04 00:32 | 31.48935 | -14.08932 | 43146 ft | 449 kts | 211° |
| 2026-05-04 00:32 | 31.43327 | -14.12055 | 43146 ft | 448 kts | 211° |
| 2026-05-04 00:33 | 31.34865 | -14.16757 | 43143 ft | 449 kts | 211° |
| 2026-05-04 00:34 | 31.29228 | -14.19885 | 43145 ft | 449 kts | 211° |
| 2026-05-04 00:34 | 31.23588 | -14.23010 | 43145 ft | 448 kts | 211° |
| 2026-05-04 00:35 | 31.17949 | -14.26130 | 43146 ft | 448 kts | 211° |
| 2026-05-04 00:35 | 31.12312 | -14.29245 | 43146 ft | 448 kts | 211° |
| 2026-05-04 00:36 | 31.06682 | -14.32353 | 43147 ft | 448 kts | 211° |
| 2026-05-04 00:36 | 31.01041 | -14.35461 | 43146 ft | 448 kts | 211° |
| 2026-05-04 00:37 | 30.95403 | -14.38564 | 43147 ft | 447 kts | 211° |
| 2026-05-04 00:37 | 30.89737 | -14.41577 | 43140 ft | 451 kts | 206° |
| 2026-05-04 00:38 | 30.83750 | -14.43873 | 43140 ft | 453 kts | 204° |
| 2026-05-04 00:38 | 30.77735 | -14.46079 | 43141 ft | 453 kts | 204° |
| 2026-05-04 00:39 | 30.71757 | -14.48277 | 43141 ft | 453 kts | 204° |
| 2026-05-04 00:39 | 30.65748 | -14.50487 | 43142 ft | 452 kts | 204° |
| 2026-05-04 00:40 | 30.59746 | -14.52694 | 43143 ft | 452 kts | 204° |
| 2026-05-04 00:40 | 30.53761 | -14.54891 | 43143 ft | 451 kts | 204° |
| 2026-05-04 00:41 | 30.47772 | -14.57088 | 43143 ft | 451 kts | 204° |
| 2026-05-04 00:41 | 30.41778 | -14.59283 | 43140 ft | 452 kts | 204° |
| 2026-05-04 00:42 | 30.35789 | -14.61473 | 43143 ft | 451 kts | 204° |
| 2026-05-04 00:42 | 30.29813 | -14.63656 | 43133 ft | 450 kts | 204° |
| 2026-05-04 00:43 | 30.23837 | -14.65837 | 43142 ft | 450 kts | 204° |
| 2026-05-04 00:43 | 30.17864 | -14.68013 | 43142 ft | 450 kts | 204° |
| 2026-05-04 00:44 | 30.11913 | -14.70179 | 43104 ft | 450 kts | 204° |
| 2026-05-04 00:44 | 30.08925 | -14.71264 | 42943 ft | 449 kts | 204° |
| 2026-05-04 00:44 | 30.05949 | -14.72345 | 42683 ft | 448 kts | 204° |
| 2026-05-04 00:44 | 30.02971 | -14.73427 | 42422 ft | 449 kts | 204° |
| 2026-05-04 00:45 | 29.99988 | -14.74510 | 42153 ft | 448 kts | 204° |
| 2026-05-04 00:45 | 29.97027 | -14.75581 | 41891 ft | 442 kts | 204° |
| 2026-05-04 00:45 | 29.94106 | -14.76638 | 41637 ft | 439 kts | 204° |
| 2026-05-04 00:45 | 29.91200 | -14.77691 | 41381 ft | 438 kts | 204° |
| 2026-05-04 00:46 | 29.88285 | -14.78748 | 41120 ft | 439 kts | 204° |
| 2026-05-04 00:46 | 29.85369 | -14.79804 | 40868 ft | 439 kts | 204° |
| 2026-05-04 00:46 | 29.82458 | -14.80857 | 40621 ft | 439 kts | 204° |
| 2026-05-04 00:46 | 29.79537 | -14.81913 | 40372 ft | 439 kts | 204° |
| 2026-05-04 00:47 | 29.76622 | -14.82966 | 40134 ft | 440 kts | 204° |
| 2026-05-04 00:47 | 29.73697 | -14.84021 | 39893 ft | 440 kts | 204° |
| 2026-05-04 00:47 | 29.70780 | -14.85073 | 39650 ft | 440 kts | 204° |
| 2026-05-04 00:47 | 29.67860 | -14.86126 | 39425 ft | 440 kts | 204° |
| 2026-05-04 00:48 | 29.64931 | -14.87181 | 39202 ft | 441 kts | 204° |
| 2026-05-04 00:48 | 29.62003 | -14.88235 | 38964 ft | 441 kts | 204° |
| 2026-05-04 00:48 | 29.59077 | -14.89288 | 38711 ft | 441 kts | 204° |
| 2026-05-04 00:48 | 29.56152 | -14.90340 | 38431 ft | 441 kts | 204° |
| 2026-05-04 00:49 | 29.53216 | -14.91396 | 38119 ft | 442 kts | 204° |
| 2026-05-04 00:49 | 29.50311 | -14.92439 | 37839 ft | 443 kts | 204° |
| 2026-05-04 00:49 | 29.47367 | -14.93496 | 37564 ft | 445 kts | 204° |
| 2026-05-04 00:49 | 29.44409 | -14.94558 | 37314 ft | 446 kts | 204° |
| 2026-05-04 00:50 | 29.41404 | -14.95635 | 37045 ft | 447 kts | 204° |
| 2026-05-04 00:50 | 29.38472 | -14.96685 | 36796 ft | 448 kts | 204° |
| 2026-05-04 00:50 | 29.35492 | -14.97752 | 36537 ft | 449 kts | 204° |
| 2026-05-04 00:50 | 29.32504 | -14.98821 | 36285 ft | 450 kts | 204° |
| 2026-05-04 00:51 | 29.29513 | -14.99890 | 36028 ft | 451 kts | 203° |
| 2026-05-04 00:51 | 29.26515 | -15.00962 | 35780 ft | 452 kts | 203° |
| 2026-05-04 00:51 | 29.23511 | -15.02034 | 35506 ft | 452 kts | 203° |
| 2026-05-04 00:51 | 29.20505 | -15.03107 | 35265 ft | 453 kts | 203° |
| 2026-05-04 00:52 | 29.17497 | -15.04180 | 35138 ft | 453 kts | 203° |
| 2026-05-04 00:52 | 29.11466 | -15.06329 | 35128 ft | 454 kts | 203° |
| 2026-05-04 00:53 | 29.05443 | -15.08472 | 35126 ft | 454 kts | 203° |
| 2026-05-04 00:53 | 28.99417 | -15.10614 | 35126 ft | 454 kts | 203° |
| 2026-05-04 00:54 | 28.93357 | -15.12635 | 35123 ft | 457 kts | 199° |
| 2026-05-04 00:54 | 28.87110 | -15.14084 | 35124 ft | 458 kts | 198° |
| 2026-05-04 00:55 | 28.80849 | -15.15461 | 35117 ft | 458 kts | 198° |
| 2026-05-04 00:55 | 28.74651 | -15.16812 | 34687 ft | 445 kts | 197° |
| 2026-05-04 00:55 | 28.71651 | -15.17463 | 34460 ft | 434 kts | 198° |
| 2026-05-04 00:56 | 28.68735 | -15.18095 | 34041 ft | 420 kts | 198° |
| 2026-05-04 00:56 | 28.65897 | -15.18712 | 33058 ft | 413 kts | 198° |
| 2026-05-04 00:56 | 28.63089 | -15.19327 | 32046 ft | 408 kts | 198° |
| 2026-05-04 00:56 | 28.60316 | -15.19902 | 31087 ft | 402 kts | 194° |
| 2026-05-04 00:57 | 28.57577 | -15.20429 | 30103 ft | 397 kts | 196° |
| 2026-05-04 00:57 | 28.54860 | -15.20946 | 28982 ft | 393 kts | 195° |
| 2026-05-04 00:57 | 28.52180 | -15.21423 | 28032 ft | 387 kts | 194° |
| 2026-05-04 00:57 | 28.49532 | -15.21844 | 26752 ft | 384 kts | 194° |
| 2026-05-04 00:58 | 28.46868 | -15.22431 | 25163 ft | 394 kts | 199° |
| 2026-05-04 00:58 | 28.44230 | -15.23176 | 23693 ft | 399 kts | 199° |
| 2026-05-04 00:58 | 28.41496 | -15.23919 | 21837 ft | 409 kts | 197° |
| 2026-05-04 00:58 | 28.38688 | -15.24585 | 20140 ft | 413 kts | 194° |
| 2026-05-04 00:59 | 28.35873 | -15.25132 | 18685 ft | 407 kts | 193° |
| 2026-05-04 00:59 | 28.33095 | -15.25672 | 17006 ft | 405 kts | 193° |
| 2026-05-04 00:59 | 28.30316 | -15.26257 | 15330 ft | 406 kts | 194° |
| 2026-05-04 00:59 | 28.27568 | -15.26828 | 14153 ft | 396 kts | 193° |
| 2026-05-04 01:00 | 28.24886 | -15.27406 | 12604 ft | 391 kts | 194° |
| 2026-05-04 01:00 | 28.22226 | -15.28049 | 11062 ft | 390 kts | 195° |
| 2026-05-04 01:00 | 28.19622 | -15.28715 | 9831 ft | 378 kts | 195° |
| 2026-05-04 01:00 | 28.17054 | -15.29344 | 8286 ft | 375 kts | 192° |
| 2026-05-04 01:01 | 28.14507 | -15.29939 | 6797 ft | 372 kts | 193° |
| 2026-05-04 01:01 | 28.11979 | -15.30553 | 5289 ft | 370 kts | 193° |
| 2026-05-04 01:01 | 28.09499 | -15.31234 | 3880 ft | 362 kts | 197° |
| 2026-05-04 01:01 | 28.07170 | -15.32191 | 2888 ft | 348 kts | 203° |
| 2026-05-04 01:02 | 28.05065 | -15.33256 | 2249 ft | 324 kts | 203° |
| 2026-05-04 01:02 | 28.03069 | -15.34235 | 1684 ft | 304 kts | 203° |
| 2026-05-04 01:02 | 28.01169 | -15.35113 | 1187 ft | 284 kts | 202° |
| 2026-05-04 01:02 | 27.99414 | -15.35875 | 996 ft | 256 kts | 201° |
| 2026-05-04 01:03 | 27.97856 | -15.36560 | 745 ft | 226 kts | 202° |
| 2026-05-04 01:03 | 27.96470 | -15.37148 | 564 ft | 200 kts | 201° |
| 2026-05-04 01:03 | 27.95239 | -15.37739 | 269 ft | 187 kts | 203° |
| 2026-05-04 01:03 | 27.94077 | -15.38243 | 56 ft | 166 kts | 202° |
| 2026-05-04 01:04 | 27.93268 | -15.38621 | 58 ft | 83 kts | 202° |
| 2026-05-04 01:04 | 27.93011 | -15.38736 | 62 ft | 5 kts | 202° |
| 2026-05-04 01:04 | 27.92978 | -15.38751 | 62 ft | 6 kts | 202° |
| 2026-05-04 01:04 | 27.92924 | -15.38776 | 61 ft | 13 kts | 202° |
| 2026-05-04 01:05 | 27.92793 | -15.38835 | 71 ft | 26 kts | 202° |
| 2026-05-04 01:05 | 27.92622 | -15.38913 | 68 ft | 27 kts | 202° |
| 2026-05-04 01:05 | 27.92442 | -15.38995 | 87 ft | 28 kts | 202° |
| 2026-05-04 01:05 | 27.92263 | -15.39077 | 89 ft | 20 kts | 206° |
| 2026-05-04 01:06 | 27.92228 | -15.39137 | 90 ft | 6 kts | 270° |
| 2026-05-04 01:06 | 27.92250 | -15.39163 | 90 ft | 8 kts | 332° |
| 2026-05-04 01:06 | 27.92289 | -15.39172 | 95 ft | 3 kts | 357° |
| 2026-05-04 01:06 | 27.92294 | -15.39172 | 96 ft | 0 kts | 357° |
| 2026-05-04 01:07 | 27.92322 | -15.39174 | 97 ft | 13 kts | 357° |
| 2026-05-04 01:07 | 27.92487 | -15.39158 | 101 ft | 34 kts | 7° |
| 2026-05-04 01:07 | 27.92730 | -15.39063 | 94 ft | 38 kts | 20° |
| 2026-05-04 01:08 | 27.92983 | -15.38957 | 90 ft | 39 kts | 20° |
| 2026-05-04 01:08 | 27.93228 | -15.38838 | 85 ft | 34 kts | 24° |
| 2026-05-04 01:08 | 27.93397 | -15.38777 | 86 ft | 11 kts | 340° |
| 2026-05-04 01:08 | 27.93427 | -15.38815 | 91 ft | 0 kts | 301° |
| 2026-05-04 01:11 | 27.93440 | -15.38857 | 91 ft | 10 kts | 268° |
| 2026-05-04 01:11 | 27.93441 | -15.38969 | 95 ft | 16 kts | 291° |
| 2026-05-04 01:12 | 27.93447 | -15.38986 | 95 ft | 1 kts | 290° |
| 2026-05-04 01:12 | 27.93448 | -15.38991 | 95 ft | 0 kts | 289° |